Airfield :
LOGIN :

Register | Disclaimer

   EN    FR    IT 

 










Legend :    VFR   Marginal VFR   IFR   Intensive IFR   Very Intensive IFR
Visi :
Ceiling :
>= 8 km
>= 3000ft
5 to 8 km
1000 to 3000 ft
1500m to 5 km
500 to 1000 ft
800 to 1500m
200 to 500 ft
< 800m
< 200 ft
Symbols :   Thunderstorms  Fog  Heavy snow  Heavy precipitations  Wind > 20 kt
SIGMETs :     Misc.  Thunderstorms  Icing  Turbulence  Mountain Waves  Volcanic Ashes






- Airport Elevation : 333 ft


LIPL - Ghedi Brescia (Mil)

CURRENT METAR :
  • 171755Z 10003KT CAVOK 24/19 Q1009 RMK SKC VIS MIN 9999 WIND THR31 10003KT WIND THR13 09003KT BLU

EXPIRED METARs :
  • 171655Z 14004KT CAVOK 26/18 Q1009 RMK SKC VIS MIN 9999 WIND THR31 13004KT WIND THR13 14004KT BLU
  • 171555Z 15005KT CAVOK 26/17 Q1009 RMK SKC VIS MIN 9999 WIND THR31 15005KT WIND THR13 13005KT BLU

TAF AMD TAF LIPL
Valid from the 17 at 18:00 until the 18 at 03:00 UTC


171800Z 1718/1803 15005KT 9999 SCT030
BECMG 1720/1723 9999 BKN025 SCT050



MET'MAP, your aeronautical weather chart ! - Copyright ORBIFLY December 2007 - Disclaimer

ORBIFLY MET'MAP TEAM :

Programming & Development : Alexandra Zaïnal
Concept & original design : Baudouin d'Aumeries
Assistance for programming : Marc-Olivier Méhu
Technical & hardware support : Manuel Goepfert

Contact : metmap@orbifly.com




SOURCES & CREDITS :

   NOAA